sensor_id;sensor_type;location;lat;lon;timestamp;P1;durP1;ratioP1;P2;durP2;ratioP2
46653;SDS011;38960;51.074;17.004;2023-03-25T07:19:55;7.22;;;3.20;;
46653;SDS011;38960;51.074;17.004;2023-03-25T07:22:21;9.10;;;3.38;;
46653;SDS011;38960;51.074;17.004;2023-03-25T07:24:50;5.72;;;2.58;;
46653;SDS011;38960;51.074;17.004;2023-03-25T07:27:16;6.60;;;2.65;;
46653;SDS011;38960;51.074;17.004;2023-03-25T07:29:50;6.03;;;3.05;;
46653;SDS011;38960;51.074;17.004;2023-03-25T07:32:16;7.40;;;2.47;;
46653;SDS011;38960;51.074;17.004;2023-03-25T07:34:42;8.77;;;3.00;;
46653;SDS011;38960;51.074;17.004;2023-03-25T07:37:08;4.68;;;2.55;;
46653;SDS011;38960;51.074;17.004;2023-03-25T07:39:33;5.07;;;2.30;;
46653;SDS011;38960;51.074;17.004;2023-03-25T07:41:59;4.68;;;2.17;;
46653;SDS011;38960;51.074;17.004;2023-03-25T07:44:47;4.57;;;2.30;;
46653;SDS011;38960;51.074;17.004;2023-03-25T07:47:13;6.60;;;2.45;;
46653;SDS011;38960;51.074;17.004;2023-03-25T07:49:38;5.65;;;2.20;;
46653;SDS011;38960;51.074;17.004;2023-03-25T07:52:08;4.25;;;2.20;;
46653;SDS011;38960;51.074;17.004;2023-03-25T07:54:33;7.90;;;2.25;;
46653;SDS011;38960;51.074;17.004;2023-03-25T07:57:00;3.88;;;1.67;;
46653;SDS011;38960;51.074;17.004;2023-03-25T07:59:25;5.57;;;1.85;;
46653;SDS011;38960;51.074;17.004;2023-03-25T08:01:51;2.35;;;1.38;;
46653;SDS011;38960;51.074;17.004;2023-03-25T08:04:17;5.07;;;1.50;;
46653;SDS011;38960;51.074;17.004;2023-03-25T08:06:42;4.43;;;1.40;;
46653;SDS011;38960;51.074;17.004;2023-03-25T08:09:08;4.72;;;1.60;;
46653;SDS011;38960;51.074;17.004;2023-03-25T08:11:37;3.67;;;1.55;;
46653;SDS011;38960;51.074;17.004;2023-03-25T08:16:31;2.67;;;1.42;;
46653;SDS011;38960;51.074;17.004;2023-03-25T08:18:56;3.17;;;1.73;;
46653;SDS011;38960;51.074;17.004;2023-03-25T08:21:22;3.35;;;1.63;;
46653;SDS011;38960;51.074;17.004;2023-03-25T08:23:52;6.57;;;2.20;;
46653;SDS011;38960;51.074;17.004;2023-03-25T08:26:25;4.05;;;1.60;;
46653;SDS011;38960;51.074;17.004;2023-03-25T08:28:52;6.65;;;1.48;;
46653;SDS011;38960;51.074;17.004;2023-03-25T08:31:22;3.40;;;1.52;;
46653;SDS011;38960;51.074;17.004;2023-03-25T08:33:48;3.22;;;1.42;;
46653;SDS011;38960;51.074;17.004;2023-03-25T08:36:14;4.05;;;1.80;;
46653;SDS011;38960;51.074;17.004;2023-03-25T08:38:47;3.08;;;1.60;;
46653;SDS011;38960;51.074;17.004;2023-03-25T08:43:41;5.32;;;1.80;;
46653;SDS011;38960;51.074;17.004;2023-03-25T08:46:07;4.13;;;1.60;;
46653;SDS011;38960;51.074;17.004;2023-03-25T08:48:32;3.22;;;1.33;;
46653;SDS011;38960;51.074;17.004;2023-03-25T08:50:58;4.85;;;1.38;;
46653;SDS011;38960;51.074;17.004;2023-03-25T08:53:24;3.30;;;1.45;;
46653;SDS011;38960;51.074;17.004;2023-03-25T08:55:51;2.97;;;1.48;;
46653;SDS011;38960;51.074;17.004;2023-03-25T08:58:17;3.50;;;1.83;;
46653;SDS011;38960;51.074;17.004;2023-03-25T09:00:43;3.35;;;1.52;;
46653;SDS011;38960;51.074;17.004;2023-03-25T09:03:09;5.03;;;2.03;;
46653;SDS011;38960;51.074;17.004;2023-03-25T09:05:36;3.85;;;1.77;;
46653;SDS011;38960;51.074;17.004;2023-03-25T09:08:03;7.60;;;1.90;;
46653;SDS011;38960;51.074;17.004;2023-03-25T09:10:29;3.33;;;1.77;;
46653;SDS011;38960;51.074;17.004;2023-03-25T09:12:54;4.32;;;1.73;;
46653;SDS011;38960;51.074;17.004;2023-03-25T09:15:20;6.07;;;1.60;;
46653;SDS011;38960;51.074;17.004;2023-03-25T09:17:45;1.90;;;1.30;;
46653;SDS011;38960;51.074;17.004;2023-03-25T09:20:11;4.65;;;1.55;;
46653;SDS011;38960;51.074;17.004;2023-03-25T09:22:37;3.28;;;1.65;;
46653;SDS011;38960;51.074;17.004;2023-03-25T09:25:03;3.17;;;1.20;;
46653;SDS011;38960;51.074;17.004;2023-03-25T09:27:30;2.83;;;1.30;;
46653;SDS011;38960;51.074;17.004;2023-03-25T09:29:56;2.60;;;1.15;;
46653;SDS011;38960;51.074;17.004;2023-03-25T09:32:22;1.88;;;1.20;;
46653;SDS011;38960;51.074;17.004;2023-03-25T09:34:48;1.77;;;1.58;;
46653;SDS011;38960;51.074;17.004;2023-03-25T09:37:14;5.43;;;1.50;;
46653;SDS011;38960;51.074;17.004;2023-03-25T09:39:39;4.93;;;1.50;;
46653;SDS011;38960;51.074;17.004;2023-03-25T09:47:15;3.35;;;1.30;;
46653;SDS011;38960;51.074;17.004;2023-03-25T09:49:43;1.40;;;1.10;;
46653;SDS011;38960;51.074;17.004;2023-03-25T09:52:17;4.25;;;1.05;;
46653;SDS011;38960;51.074;17.004;2023-03-25T09:55:01;2.10;;;0.80;;
46653;SDS011;38960;51.074;17.004;2023-03-25T09:57:31;1.45;;;0.93;;
46653;SDS011;38960;51.074;17.004;2023-03-25T10:00:02;4.90;;;1.37;;
46653;SDS011;38960;51.074;17.004;2023-03-25T10:02:39;1.50;;;0.93;;
46653;SDS011;38960;51.074;17.004;2023-03-25T10:05:31;2.47;;;0.90;;
46653;SDS011;38960;51.074;17.004;2023-03-25T10:16:36;2.20;;;1.13;;
46653;SDS011;38960;51.074;17.004;2023-03-25T10:21:12;3.30;;;1.10;;
46653;SDS011;38960;51.074;17.004;2023-03-25T10:23:51;2.28;;;1.35;;
46653;SDS011;38960;51.074;17.004;2023-03-25T10:26:51;2.92;;;1.35;;
46653;SDS011;38960;51.074;17.004;2023-03-25T10:29:23;2.13;;;1.15;;
46653;SDS011;38960;51.074;17.004;2023-03-25T10:32:15;4.22;;;1.13;;
46653;SDS011;38960;51.074;17.004;2023-03-25T10:34:46;3.10;;;1.50;;
46653;SDS011;38960;51.074;17.004;2023-03-25T10:37:15;4.35;;;1.58;;
46653;SDS011;38960;51.074;17.004;2023-03-25T10:39:48;4.95;;;1.38;;
46653;SDS011;38960;51.074;17.004;2023-03-25T10:44:50;2.15;;;1.02;;
46653;SDS011;38960;51.074;17.004;2023-03-25T10:47:21;4.13;;;1.65;;
46653;SDS011;38960;51.074;17.004;2023-03-25T10:49:49;3.53;;;1.40;;
46653;SDS011;38960;51.074;17.004;2023-03-25T10:52:16;3.92;;;1.98;;
46653;SDS011;38960;51.074;17.004;2023-03-25T10:54:47;2.50;;;1.40;;
46653;SDS011;38960;51.074;17.004;2023-03-25T10:57:17;3.22;;;1.30;;
46653;SDS011;38960;51.074;17.004;2023-03-25T11:02:47;3.25;;;1.17;;
46653;SDS011;38960;51.074;17.004;2023-03-25T11:05:19;4.60;;;1.85;;
46653;SDS011;38960;51.074;17.004;2023-03-25T11:07:50;3.35;;;1.60;;
46653;SDS011;38960;51.074;17.004;2023-03-25T11:10:25;3.13;;;1.75;;
46653;SDS011;38960;51.074;17.004;2023-03-25T11:12:56;1.75;;;1.20;;
46653;SDS011;38960;51.074;17.004;2023-03-25T11:15:34;3.53;;;1.30;;
46653;SDS011;38960;51.074;17.004;2023-03-25T11:18:10;1.40;;;0.90;;
46653;SDS011;38960;51.074;17.004;2023-03-25T11:21:08;2.70;;;1.35;;
46653;SDS011;38960;51.074;17.004;2023-03-25T11:23:36;2.83;;;1.33;;
46653;SDS011;38960;51.074;17.004;2023-03-25T11:26:11;1.50;;;0.98;;
46653;SDS011;38960;51.074;17.004;2023-03-25T11:28:49;3.72;;;1.75;;
46653;SDS011;38960;51.074;17.004;2023-03-25T11:31:19;3.88;;;1.90;;
46653;SDS011;38960;51.074;17.004;2023-03-25T11:36:32;6.25;;;2.50;;
46653;SDS011;38960;51.074;17.004;2023-03-25T11:39:02;3.72;;;1.60;;
46653;SDS011;38960;51.074;17.004;2023-03-25T11:41:38;3.63;;;1.23;;
46653;SDS011;38960;51.074;17.004;2023-03-25T11:44:04;1.63;;;0.90;;
46653;SDS011;38960;51.074;17.004;2023-03-25T11:46:31;5.88;;;1.58;;
46653;SDS011;38960;51.074;17.004;2023-03-25T11:49:07;2.67;;;1.13;;
46653;SDS011;38960;51.074;17.004;2023-03-25T11:51:34;2.42;;;1.23;;
46653;SDS011;38960;51.074;17.004;2023-03-25T11:54:01;3.90;;;1.52;;
46653;SDS011;38960;51.074;17.004;2023-03-25T11:56:34;1.95;;;0.93;;
46653;SDS011;38960;51.074;17.004;2023-03-25T11:59:15;9.63;;;1.55;;
46653;SDS011;38960;51.074;17.004;2023-03-25T12:01:46;1.48;;;0.95;;
46653;SDS011;38960;51.074;17.004;2023-03-25T12:04:22;3.75;;;0.95;;
46653;SDS011;38960;51.074;17.004;2023-03-25T12:09:22;2.85;;;1.20;;
46653;SDS011;38960;51.074;17.004;2023-03-25T12:14:45;3.03;;;1.02;;
46653;SDS011;38960;51.074;17.004;2023-03-25T12:30:47;2.22;;;0.82;;
46653;SDS011;38960;51.074;17.004;2023-03-25T12:41:20;1.83;;;1.05;;
46653;SDS011;38960;51.074;17.004;2023-03-25T12:49:39;4.63;;;1.10;;
46653;SDS011;38960;51.074;17.004;2023-03-25T13:08:33;2.60;;;0.95;;
46653;SDS011;38960;51.074;17.004;2023-03-25T13:11:49;1.33;;;0.90;;
46653;SDS011;38960;51.074;17.004;2023-03-25T13:14:22;1.42;;;0.85;;
46653;SDS011;38960;51.074;17.004;2023-03-25T13:16:51;1.30;;;0.70;;
46653;SDS011;38960;51.074;17.004;2023-03-25T13:19:21;1.27;;;0.70;;
46653;SDS011;38960;51.074;17.004;2023-03-25T13:21:49;1.40;;;0.70;;
46653;SDS011;38960;51.074;17.004;2023-03-25T13:27:01;1.55;;;0.80;;
46653;SDS011;38960;51.074;17.004;2023-03-25T13:29:45;1.08;;;0.60;;
46653;SDS011;38960;51.074;17.004;2023-03-25T13:32:33;0.65;;;0.45;;
46653;SDS011;38960;51.074;17.004;2023-03-25T13:35:02;0.73;;;0.65;;
46653;SDS011;38960;51.074;17.004;2023-03-25T13:37:33;0.93;;;0.60;;
46653;SDS011;38960;51.074;17.004;2023-03-25T13:45:31;1.25;;;0.70;;
46653;SDS011;38960;51.074;17.004;2023-03-25T13:48:18;0.77;;;0.60;;
46653;SDS011;38960;51.074;17.004;2023-03-25T13:50:53;1.75;;;0.98;;
46653;SDS011;38960;51.074;17.004;2023-03-25T13:53:28;1.25;;;1.15;;
46653;SDS011;38960;51.074;17.004;2023-03-25T14:10:18;1.85;;;1.00;;
46653;SDS011;38960;51.074;17.004;2023-03-25T14:12:54;1.10;;;0.98;;
46653;SDS011;38960;51.074;17.004;2023-03-25T14:15:23;2.72;;;0.98;;
46653;SDS011;38960;51.074;17.004;2023-03-25T14:17:54;2.80;;;1.13;;
46653;SDS011;38960;51.074;17.004;2023-03-25T14:20:21;2.90;;;1.58;;
46653;SDS011;38960;51.074;17.004;2023-03-25T14:22:56;2.50;;;1.33;;
46653;SDS011;38960;51.074;17.004;2023-03-25T14:25:27;1.17;;;1.08;;
46653;SDS011;38960;51.074;17.004;2023-03-25T14:27:56;3.70;;;0.70;;
46653;SDS011;38960;51.074;17.004;2023-03-25T14:30:28;2.00;;;0.80;;
46653;SDS011;38960;51.074;17.004;2023-03-25T14:32:54;1.33;;;1.00;;
46653;SDS011;38960;51.074;17.004;2023-03-25T14:48:38;3.35;;;0.90;;
46653;SDS011;38960;51.074;17.004;2023-03-25T14:53:51;3.43;;;0.60;;
46653;SDS011;38960;51.074;17.004;2023-03-25T14:57:00;4.57;;;1.23;;
46653;SDS011;38960;51.074;17.004;2023-03-25T15:00:06;2.10;;;0.90;;
46653;SDS011;38960;51.074;17.004;2023-03-25T15:02:26;1.88;;;0.75;;
46653;SDS011;38960;51.074;17.004;2023-03-25T15:04:57;2.58;;;1.00;;
46653;SDS011;38960;51.074;17.004;2023-03-25T15:10:05;1.60;;;0.80;;
46653;SDS011;38960;51.074;17.004;2023-03-25T15:12:31;1.63;;;1.00;;
46653;SDS011;38960;51.074;17.004;2023-03-25T15:15:23;1.67;;;1.00;;
46653;SDS011;38960;51.074;17.004;2023-03-25T15:17:53;2.72;;;1.48;;
46653;SDS011;38960;51.074;17.004;2023-03-25T15:25:52;6.72;;;1.30;;
46653;SDS011;38960;51.074;17.004;2023-03-25T15:28:21;3.25;;;1.25;;
46653;SDS011;38960;51.074;17.004;2023-03-25T15:31:01;4.18;;;1.25;;
46653;SDS011;38960;51.074;17.004;2023-03-25T15:37:59;3.72;;;1.67;;
46653;SDS011;38960;51.074;17.004;2023-03-25T15:40:21;3.17;;;1.55;;
46653;SDS011;38960;51.074;17.004;2023-03-25T15:48:26;2.88;;;1.05;;
46653;SDS011;38960;51.074;17.004;2023-03-25T15:56:39;2.33;;;1.00;;
46653;SDS011;38960;51.074;17.004;2023-03-25T16:02:03;4.15;;;1.20;;
46653;SDS011;38960;51.074;17.004;2023-03-25T16:04:42;2.22;;;1.42;;
46653;SDS011;38960;51.074;17.004;2023-03-25T16:07:12;1.98;;;1.30;;
46653;SDS011;38960;51.074;17.004;2023-03-25T16:09:48;4.15;;;1.50;;
46653;SDS011;38960;51.074;17.004;2023-03-25T16:12:18;2.85;;;1.40;;
46653;SDS011;38960;51.074;17.004;2023-03-25T16:14:45;3.40;;;1.65;;
46653;SDS011;38960;51.074;17.004;2023-03-25T16:17:11;1.73;;;1.20;;
46653;SDS011;38960;51.074;17.004;2023-03-25T16:19:46;2.45;;;1.30;;
46653;SDS011;38960;51.074;17.004;2023-03-25T16:22:28;2.55;;;1.48;;
46653;SDS011;38960;51.074;17.004;2023-03-25T16:25:00;3.75;;;1.63;;
46653;SDS011;38960;51.074;17.004;2023-03-25T16:27:35;7.38;;;1.98;;
46653;SDS011;38960;51.074;17.004;2023-03-25T16:30:06;3.13;;;1.80;;
46653;SDS011;38960;51.074;17.004;2023-03-25T16:32:43;5.25;;;2.38;;
46653;SDS011;38960;51.074;17.004;2023-03-25T16:35:29;5.07;;;2.13;;
46653;SDS011;38960;51.074;17.004;2023-03-25T16:37:57;6.78;;;2.35;;
46653;SDS011;38960;51.074;17.004;2023-03-25T16:40:28;4.78;;;2.63;;
46653;SDS011;38960;51.074;17.004;2023-03-25T16:43:06;5.28;;;2.05;;
46653;SDS011;38960;51.074;17.004;2023-03-25T16:45:35;5.07;;;2.13;;
46653;SDS011;38960;51.074;17.004;2023-03-25T16:48:01;2.10;;;1.50;;
46653;SDS011;38960;51.074;17.004;2023-03-25T16:50:31;2.92;;;1.48;;
46653;SDS011;38960;51.074;17.004;2023-03-25T16:52:57;5.05;;;1.80;;
46653;SDS011;38960;51.074;17.004;2023-03-25T16:56:02;6.50;;;1.50;;
46653;SDS011;38960;51.074;17.004;2023-03-25T17:01:26;5.38;;;2.15;;
46653;SDS011;38960;51.074;17.004;2023-03-25T17:04:15;5.07;;;3.17;;
46653;SDS011;38960;51.074;17.004;2023-03-25T17:06:41;4.57;;;3.42;;
46653;SDS011;38960;51.074;17.004;2023-03-25T17:09:13;3.80;;;2.15;;
46653;SDS011;38960;51.074;17.004;2023-03-25T17:11:44;5.13;;;3.10;;
46653;SDS011;38960;51.074;17.004;2023-03-25T17:14:13;4.88;;;2.97;;
46653;SDS011;38960;51.074;17.004;2023-03-25T17:16:42;3.28;;;2.10;;
46653;SDS011;38960;51.074;17.004;2023-03-25T17:19:13;3.85;;;2.28;;
46653;SDS011;38960;51.074;17.004;2023-03-25T17:24:54;4.63;;;2.65;;
46653;SDS011;38960;51.074;17.004;2023-03-25T17:27:34;6.22;;;2.97;;
46653;SDS011;38960;51.074;17.004;2023-03-25T17:30:17;5.20;;;2.90;;
46653;SDS011;38960;51.074;17.004;2023-03-25T17:32:44;7.13;;;3.92;;
46653;SDS011;38960;51.074;17.004;2023-03-25T17:35:18;6.68;;;3.63;;
46653;SDS011;38960;51.074;17.004;2023-03-25T17:37:49;6.22;;;3.55;;
46653;SDS011;38960;51.074;17.004;2023-03-25T17:40:25;4.90;;;3.60;;
46653;SDS011;38960;51.074;17.004;2023-03-25T17:42:52;5.63;;;2.95;;
46653;SDS011;38960;51.074;17.004;2023-03-25T17:45:19;6.50;;;3.28;;
46653;SDS011;38960;51.074;17.004;2023-03-25T17:47:47;7.38;;;3.10;;
46653;SDS011;38960;51.074;17.004;2023-03-25T17:50:15;4.85;;;3.05;;
46653;SDS011;38960;51.074;17.004;2023-03-25T17:52:41;5.68;;;3.17;;
46653;SDS011;38960;51.074;17.004;2023-03-25T17:55:07;7.43;;;3.20;;
46653;SDS011;38960;51.074;17.004;2023-03-25T17:57:33;5.10;;;3.05;;
46653;SDS011;38960;51.074;17.004;2023-03-25T17:59:58;5.68;;;3.38;;
46653;SDS011;38960;51.074;17.004;2023-03-25T18:02:24;7.32;;;3.47;;
46653;SDS011;38960;51.074;17.004;2023-03-25T18:04:50;4.82;;;3.30;;
46653;SDS011;38960;51.074;17.004;2023-03-25T18:07:16;7.22;;;4.72;;
46653;SDS011;38960;51.074;17.004;2023-03-25T18:09:45;8.82;;;5.03;;
46653;SDS011;38960;51.074;17.004;2023-03-25T18:12:11;8.88;;;4.40;;
46653;SDS011;38960;51.074;17.004;2023-03-25T18:14:37;9.52;;;5.45;;
46653;SDS011;38960;51.074;17.004;2023-03-25T18:17:02;10.80;;;6.75;;
46653;SDS011;38960;51.074;17.004;2023-03-25T18:19:28;9.75;;;6.38;;
46653;SDS011;38960;51.074;17.004;2023-03-25T18:21:58;12.15;;;7.47;;
46653;SDS011;38960;51.074;17.004;2023-03-25T18:24:27;13.10;;;7.75;;
46653;SDS011;38960;51.074;17.004;2023-03-25T18:26:53;13.75;;;8.75;;
46653;SDS011;38960;51.074;17.004;2023-03-25T18:29:23;12.35;;;6.82;;
46653;SDS011;38960;51.074;17.004;2023-03-25T18:31:52;15.80;;;7.93;;
46653;SDS011;38960;51.074;17.004;2023-03-25T18:34:19;14.95;;;8.07;;
46653;SDS011;38960;51.074;17.004;2023-03-25T18:36:45;15.13;;;6.80;;
46653;SDS011;38960;51.074;17.004;2023-03-25T18:39:11;10.43;;;5.30;;
46653;SDS011;38960;51.074;17.004;2023-03-25T18:41:39;12.27;;;6.30;;
46653;SDS011;38960;51.074;17.004;2023-03-25T18:44:05;11.85;;;6.63;;
46653;SDS011;38960;51.074;17.004;2023-03-25T18:46:31;12.60;;;6.72;;
46653;SDS011;38960;51.074;17.004;2023-03-25T18:48:57;9.88;;;6.13;;
46653;SDS011;38960;51.074;17.004;2023-03-25T18:51:26;7.72;;;5.03;;
46653;SDS011;38960;51.074;17.004;2023-03-25T18:53:55;10.02;;;5.80;;
46653;SDS011;38960;51.074;17.004;2023-03-25T18:56:21;8.45;;;5.20;;
46653;SDS011;38960;51.074;17.004;2023-03-25T18:58:47;9.07;;;4.10;;
46653;SDS011;38960;51.074;17.004;2023-03-25T19:01:13;6.93;;;3.70;;
46653;SDS011;38960;51.074;17.004;2023-03-25T19:03:42;9.45;;;3.80;;
46653;SDS011;38960;51.074;17.004;2023-03-25T19:06:09;3.92;;;2.63;;
46653;SDS011;38960;51.074;17.004;2023-03-25T19:08:37;6.35;;;2.80;;
46653;SDS011;38960;51.074;17.004;2023-03-25T19:11:03;4.18;;;2.55;;
46653;SDS011;38960;51.074;17.004;2023-03-25T19:13:29;5.75;;;2.70;;
46653;SDS011;38960;51.074;17.004;2023-03-25T19:15:55;4.82;;;3.00;;
46653;SDS011;38960;51.074;17.004;2023-03-25T19:18:21;5.47;;;3.30;;
46653;SDS011;38960;51.074;17.004;2023-03-25T19:20:50;8.35;;;2.95;;
46653;SDS011;38960;51.074;17.004;2023-03-25T19:23:18;5.97;;;2.88;;
46653;SDS011;38960;51.074;17.004;2023-03-25T19:25:44;3.97;;;2.50;;
46653;SDS011;38960;51.074;17.004;2023-03-25T19:28:11;3.25;;;2.20;;
46653;SDS011;38960;51.074;17.004;2023-03-25T19:30:37;3.33;;;1.65;;
46653;SDS011;38960;51.074;17.004;2023-03-25T19:33:03;3.00;;;1.65;;
46653;SDS011;38960;51.074;17.004;2023-03-25T19:35:29;2.63;;;1.67;;
46653;SDS011;38960;51.074;17.004;2023-03-25T19:37:56;4.28;;;2.42;;
46653;SDS011;38960;51.074;17.004;2023-03-25T19:40:22;3.45;;;2.50;;
46653;SDS011;38960;51.074;17.004;2023-03-25T19:42:53;4.85;;;2.38;;
46653;SDS011;38960;51.074;17.004;2023-03-25T19:45:20;4.35;;;2.30;;
46653;SDS011;38960;51.074;17.004;2023-03-25T19:47:46;4.05;;;1.90;;
46653;SDS011;38960;51.074;17.004;2023-03-25T19:50:13;4.00;;;2.58;;
46653;SDS011;38960;51.074;17.004;2023-03-25T19:52:41;5.65;;;3.10;;
46653;SDS011;38960;51.074;17.004;2023-03-25T19:55:06;5.65;;;3.22;;
46653;SDS011;38960;51.074;17.004;2023-03-25T19:57:33;6.07;;;3.65;;
46653;SDS011;38960;51.074;17.004;2023-03-25T19:59:59;6.65;;;3.20;;
46653;SDS011;38960;51.074;17.004;2023-03-25T20:02:25;5.80;;;3.40;;
46653;SDS011;38960;51.074;17.004;2023-03-25T20:04:51;7.13;;;3.25;;
46653;SDS011;38960;51.074;17.004;2023-03-25T20:07:17;7.85;;;3.53;;
46653;SDS011;38960;51.074;17.004;2023-03-25T20:09:44;6.68;;;3.35;;
46653;SDS011;38960;51.074;17.004;2023-03-25T20:12:10;8.90;;;4.25;;
46653;SDS011;38960;51.074;17.004;2023-03-25T20:14:36;10.65;;;4.25;;
46653;SDS011;38960;51.074;17.004;2023-03-25T20:17:02;7.38;;;3.80;;
46653;SDS011;38960;51.074;17.004;2023-03-25T20:19:27;9.65;;;4.55;;
46653;SDS011;38960;51.074;17.004;2023-03-25T20:21:53;8.65;;;4.10;;
46653;SDS011;38960;51.074;17.004;2023-03-25T20:24:19;9.63;;;5.25;;
46653;SDS011;38960;51.074;17.004;2023-03-25T20:26:44;11.18;;;6.22;;
46653;SDS011;38960;51.074;17.004;2023-03-25T20:29:10;7.80;;;4.85;;
46653;SDS011;38960;51.074;17.004;2023-03-25T20:31:35;6.28;;;4.05;;
46653;SDS011;38960;51.074;17.004;2023-03-25T20:34:01;9.00;;;3.92;;
46653;SDS011;38960;51.074;17.004;2023-03-25T20:36:29;7.75;;;3.55;;
46653;SDS011;38960;51.074;17.004;2023-03-25T20:38:55;5.90;;;2.95;;
46653;SDS011;38960;51.074;17.004;2023-03-25T20:41:21;6.18;;;3.30;;
46653;SDS011;38960;51.074;17.004;2023-03-25T20:43:48;8.20;;;4.15;;
46653;SDS011;38960;51.074;17.004;2023-03-25T20:46:13;13.20;;;3.22;;
46653;SDS011;38960;51.074;17.004;2023-03-25T20:48:40;6.03;;;3.35;;
46653;SDS011;38960;51.074;17.004;2023-03-25T20:51:06;5.10;;;2.83;;
46653;SDS011;38960;51.074;17.004;2023-03-25T20:53:34;6.35;;;2.88;;
46653;SDS011;38960;51.074;17.004;2023-03-25T20:56:00;7.32;;;2.83;;
46653;SDS011;38960;51.074;17.004;2023-03-25T20:58:27;5.20;;;2.65;;
46653;SDS011;38960;51.074;17.004;2023-03-25T21:00:54;6.57;;;2.60;;
46653;SDS011;38960;51.074;17.004;2023-03-25T21:03:23;4.88;;;2.72;;
46653;SDS011;38960;51.074;17.004;2023-03-25T21:05:54;4.38;;;2.50;;
46653;SDS011;38960;51.074;17.004;2023-03-25T21:08:22;5.35;;;2.70;;
46653;SDS011;38960;51.074;17.004;2023-03-25T21:10:50;5.90;;;2.47;;
46653;SDS011;38960;51.074;17.004;2023-03-25T21:13:16;6.03;;;2.80;;
46653;SDS011;38960;51.074;17.004;2023-03-25T21:15:41;5.45;;;2.95;;
46653;SDS011;38960;51.074;17.004;2023-03-25T21:18:07;6.70;;;3.40;;
46653;SDS011;38960;51.074;17.004;2023-03-25T21:20:35;8.55;;;3.42;;
46653;SDS011;38960;51.074;17.004;2023-03-25T21:23:01;8.70;;;3.47;;
46653;SDS011;38960;51.074;17.004;2023-03-25T21:25:27;7.18;;;3.28;;
46653;SDS011;38960;51.074;17.004;2023-03-25T21:27:59;6.15;;;3.25;;
46653;SDS011;38960;51.074;17.004;2023-03-25T21:30:26;11.00;;;3.65;;
46653;SDS011;38960;51.074;17.004;2023-03-25T21:32:52;10.90;;;4.45;;
46653;SDS011;38960;51.074;17.004;2023-03-25T21:35:18;6.70;;;3.53;;
46653;SDS011;38960;51.074;17.004;2023-03-25T21:37:44;6.72;;;3.03;;
46653;SDS011;38960;51.074;17.004;2023-03-25T21:40:11;10.02;;;3.85;;
46653;SDS011;38960;51.074;17.004;2023-03-25T21:42:41;9.55;;;4.15;;
46653;SDS011;38960;51.074;17.004;2023-03-25T21:45:10;6.88;;;4.05;;
46653;SDS011;38960;51.074;17.004;2023-03-25T21:47:38;8.23;;;4.32;;
46653;SDS011;38960;51.074;17.004;2023-03-25T21:50:04;7.70;;;4.28;;
46653;SDS011;38960;51.074;17.004;2023-03-25T21:52:31;10.20;;;4.95;;
46653;SDS011;38960;51.074;17.004;2023-03-25T21:54:58;10.57;;;4.47;;
46653;SDS011;38960;51.074;17.004;2023-03-25T21:57:23;7.47;;;3.80;;
46653;SDS011;38960;51.074;17.004;2023-03-25T21:59:49;7.78;;;4.00;;
46653;SDS011;38960;51.074;17.004;2023-03-25T22:02:18;10.90;;;4.25;;
46653;SDS011;38960;51.074;17.004;2023-03-25T22:04:45;10.18;;;3.80;;
46653;SDS011;38960;51.074;17.004;2023-03-25T22:07:11;8.25;;;3.60;;
46653;SDS011;38960;51.074;17.004;2023-03-25T22:09:37;5.22;;;3.17;;
46653;SDS011;38960;51.074;17.004;2023-03-25T22:12:02;6.25;;;3.20;;
46653;SDS011;38960;51.074;17.004;2023-03-25T22:14:28;7.82;;;3.30;;
46653;SDS011;38960;51.074;17.004;2023-03-25T22:16:54;4.93;;;2.53;;
46653;SDS011;38960;51.074;17.004;2023-03-25T22:19:19;5.97;;;2.88;;
46653;SDS011;38960;51.074;17.004;2023-03-25T22:21:45;6.05;;;3.50;;
46653;SDS011;38960;51.074;17.004;2023-03-25T22:24:10;4.97;;;2.70;;
46653;SDS011;38960;51.074;17.004;2023-03-25T22:26:36;4.68;;;2.53;;
46653;SDS011;38960;51.074;17.004;2023-03-25T22:29:07;4.27;;;2.20;;
46653;SDS011;38960;51.074;17.004;2023-03-25T22:31:34;5.20;;;3.00;;
46653;SDS011;38960;51.074;17.004;2023-03-25T22:34:04;5.40;;;2.78;;
46653;SDS011;38960;51.074;17.004;2023-03-25T22:36:43;4.55;;;2.90;;
46653;SDS011;38960;51.074;17.004;2023-03-25T22:39:13;6.03;;;3.10;;
46653;SDS011;38960;51.074;17.004;2023-03-25T22:41:39;7.13;;;3.47;;
46653;SDS011;38960;51.074;17.004;2023-03-25T22:44:04;6.47;;;3.05;;
46653;SDS011;38960;51.074;17.004;2023-03-25T22:46:30;6.05;;;2.90;;
46653;SDS011;38960;51.074;17.004;2023-03-25T22:48:56;6.13;;;2.90;;
46653;SDS011;38960;51.074;17.004;2023-03-25T22:51:21;7.75;;;3.08;;
46653;SDS011;38960;51.074;17.004;2023-03-25T22:53:47;3.85;;;2.30;;
46653;SDS011;38960;51.074;17.004;2023-03-25T22:56:13;7.53;;;2.40;;
46653;SDS011;38960;51.074;17.004;2023-03-25T22:58:38;3.50;;;2.20;;
46653;SDS011;38960;51.074;17.004;2023-03-25T23:01:05;5.03;;;2.15;;
46653;SDS011;38960;51.074;17.004;2023-03-25T23:03:40;5.10;;;2.38;;
46653;SDS011;38960;51.074;17.004;2023-03-25T23:06:06;4.18;;;1.85;;
46653;SDS011;38960;51.074;17.004;2023-03-25T23:08:35;4.88;;;2.08;;
46653;SDS011;38960;51.074;17.004;2023-03-25T23:11:07;3.80;;;2.03;;
46653;SDS011;38960;51.074;17.004;2023-03-25T23:13:34;3.53;;;2.00;;
46653;SDS011;38960;51.074;17.004;2023-03-25T23:16:04;6.15;;;2.63;;
46653;SDS011;38960;51.074;17.004;2023-03-25T23:18:32;4.60;;;2.30;;
46653;SDS011;38960;51.074;17.004;2023-03-25T23:20:58;4.50;;;2.38;;
46653;SDS011;38960;51.074;17.004;2023-03-25T23:23:24;6.88;;;2.83;;
46653;SDS011;38960;51.074;17.004;2023-03-25T23:26:06;4.35;;;2.38;;
46653;SDS011;38960;51.074;17.004;2023-03-25T23:28:41;4.45;;;2.30;;
46653;SDS011;38960;51.074;17.004;2023-03-25T23:31:15;4.80;;;2.33;;
46653;SDS011;38960;51.074;17.004;2023-03-25T23:33:43;4.03;;;2.20;;
46653;SDS011;38960;51.074;17.004;2023-03-25T23:36:12;4.90;;;2.22;;
46653;SDS011;38960;51.074;17.004;2023-03-25T23:38:39;4.18;;;2.33;;
46653;SDS011;38960;51.074;17.004;2023-03-25T23:41:09;3.40;;;2.03;;
46653;SDS011;38960;51.074;17.004;2023-03-25T23:43:36;5.47;;;2.15;;
46653;SDS011;38960;51.074;17.004;2023-03-25T23:46:05;3.80;;;1.95;;
46653;SDS011;38960;51.074;17.004;2023-03-25T23:48:32;3.38;;;2.22;;
46653;SDS011;38960;51.074;17.004;2023-03-25T23:51:05;4.05;;;2.33;;
46653;SDS011;38960;51.074;17.004;2023-03-25T23:53:32;2.75;;;1.77;;
46653;SDS011;38960;51.074;17.004;2023-03-25T23:56:00;3.03;;;1.88;;
46653;SDS011;38960;51.074;17.004;2023-03-25T23:58:26;3.08;;;1.60;;
